Wetterdaten: Woche 03.11.08 - 09.11.08 (KW45)
Datum Zeit Temperatur Luftfeuchte Luftdruck Niederschlag Wind Richtung Sonnenschein Solar Taupunkt Windchill Windben
03.11.2008 00:00 5.9 C 97 % 1011.0 hPa 0.0 l/m 0.3 km/h (0 Bft) N 0.00 h 0 W/m 5.5 C 5.9 C 1.2 km/h (1 Bft)
03.11.2008 01:00 6.1 C 99 % 1011.9 hPa 0.0 l/m 2.1 km/h (1 Bft) O-SO 0.00 h 0 W/m 5.9 C 6.0 C 3.5 km/h (1 Bft)
03.11.2008 02:00 6.2 C 98 % 1011.9 hPa 0.2 l/m 4.0 km/h (1 Bft) S-SO 0.00 h 0 W/m 6.0 C 5.8 C 6.8 km/h (2 Bft)
03.11.2008 03:00 5.9 C 98 % 1011.9 hPa 0.0 l/m 1.3 km/h (1 Bft) S-SO 0.00 h 0 W/m 5.6 C 5.8 C 3.0 km/h (1 Bft)
03.11.2008 04:00 5.4 C 98 % 1012.2 hPa 0.0 l/m 2.6 km/h (1 Bft) O 0.00 h 0 W/m 5.1 C 5.3 C 4.0 km/h (1 Bft)
03.11.2008 05:00 5.9 C 99 % 1012.5 hPa 0.0 l/m 0.8 km/h (0 Bft) O-SO 0.00 h 0 W/m 5.7 C 5.8 C 1.8 km/h (1 Bft)
03.11.2008 06:00 6.1 C 99 % 1012.5 hPa 0.0 l/m 0.4 km/h (0 Bft) O 0.00 h 0 W/m 6.0 C 6.1 C 1.5 km/h (1 Bft)
03.11.2008 07:00 6.2 C 99 % 1012.7 hPa 0.0 l/m 1.2 km/h (1 Bft) SO 0.30 h 28 W/m 6.1 C 6.2 C 2.8 km/h (1 Bft)
03.11.2008 08:00 6.3 C 100 % 1013.2 hPa 0.0 l/m 1.5 km/h (1 Bft) O-SO 0.00 h 38 W/m 6.2 C 6.2 C 3.3 km/h (1 Bft)
03.11.2008 09:00 6.5 C 100 % 1013.5 hPa 0.0 l/m 1.0 km/h (0 Bft) O 0.17 h 120 W/m 6.5 C 6.5 C 2.9 km/h (1 Bft)
03.11.2008 10:00 7.8 C 97 % 1013.1 hPa 0.0 l/m 3.9 km/h (1 Bft) O-SO 0.62 h 262 W/m 7.4 C 7.3 C 6.3 km/h (2 Bft)
03.11.2008 11:00 10.7 C 86 % 1012.5 hPa 0.0 l/m 2.5 km/h (1 Bft) W-NW 1.00 h 391 W/m 8.4 C 10.5 C 4.4 km/h (1 Bft)
03.11.2008 12:00 12.4 C 79 % 1012.0 hPa 0.0 l/m 1.8 km/h (1 Bft) W-NW 0.92 h 399 W/m 8.9 C 12.4 C 3.6 km/h (1 Bft)
03.11.2008 13:00 14.1 C 73 % 1011.7 hPa 0.0 l/m 2.0 km/h (1 Bft) N-NO 0.82 h 359 W/m 9.4 C 14.1 C 4.4 km/h (1 Bft)
03.11.2008 14:00 13.0 C 80 % 1011.8 hPa 0.0 l/m 1.3 km/h (1 Bft) N-NO 0.03 h 113 W/m 9.6 C 13.0 C 2.8 km/h (1 Bft)
03.11.2008 15:00 12.8 C 78 % 1012.1 hPa 0.0 l/m 2.0 km/h (1 Bft) O-SO 0.23 h 100 W/m 9.1 C 12.8 C 4.2 km/h (1 Bft)
03.11.2008 16:00 11.4 C 82 % 1012.7 hPa 0.0 l/m 3.0 km/h (1 Bft) O-SO 0.00 h 26 W/m 8.4 C 11.4 C 4.6 km/h (1 Bft)
03.11.2008 17:00 10.5 C 88 % 1013.0 hPa 0.0 l/m 0.0 km/h (0 Bft) N 0.00 h 0 W/m 8.5 C 10.5 C 0.2 km/h (0 Bft)
03.11.2008 18:00 9.7 C 91 % 1013.5 hPa 0.0 l/m 1.6 km/h (1 Bft) SO 0.00 h 0 W/m 8.3 C 9.7 C 2.6 km/h (1 Bft)
03.11.2008 19:00 9.2 C 93 % 1014.0 hPa 0.0 l/m 0.2 km/h (0 Bft) O-SO 0.00 h 0 W/m 8.1 C 9.2 C 0.7 km/h (0 Bft)
03.11.2008 20:00 8.8 C 95 % 1014.4 hPa 0.0 l/m 0.4 km/h (0 Bft) O-SO 0.00 h 0 W/m 8.1 C 8.8 C 1.1 km/h (1 Bft)
03.11.2008 21:00 8.5 C 97 % 1014.7 hPa 0.0 l/m 0.1 km/h (0 Bft) O-SO 0.00 h 0 W/m 8.0 C 8.5 C 0.5 km/h (0 Bft)
03.11.2008 22:00 8.0 C 98 % 1015.1 hPa 0.0 l/m 1.7 km/h (1 Bft) O-SO 0.00 h 0 W/m 7.7 C 8.0 C 2.9 km/h (1 Bft)
03.11.2008 23:00 7.5 C 99 % 1015.5 hPa 0.0 l/m 0.9 km/h (0 Bft) O 0.00 h 0 W/m 7.3 C 7.4 C 1.6 km/h (1 Bft)
04.11.2008 00:00 6.7 C 100 % 1015.7 hPa 0.0 l/m 2.4 km/h (1 Bft) O-SO 0.00 h 0 W/m 6.6 C 6.5 C 3.6 km/h (1 Bft)
04.11.2008 01:00 6.2 C 100 % 1015.8 hPa 0.0 l/m 1.0 km/h (0 Bft) O-SO 0.00 h 0 W/m 6.2 C 6.2 C 2.0 km/h (1 Bft)
04.11.2008 02:00 6.7 C 100 % 1016.4 hPa 0.0 l/m 0.6 km/h (0 Bft) O-SO 0.00 h 0 W/m 6.7 C 6.6 C 1.3 km/h (1 Bft)
04.11.2008 03:00 7.1 C 100 % 1016.3 hPa 0.0 l/m 2.6 km/h (1 Bft) O-SO 0.00 h 0 W/m 7.1 C 7.0 C 4.1 km/h (1 Bft)
04.11.2008 04:00 7.2 C 100 % 1016.6 hPa 0.0 l/m 0.6 km/h (0 Bft) SO 0.00 h 0 W/m 7.2 C 7.2 C 1.5 km/h (1 Bft)
04.11.2008 05:00 7.1 C 100 % 1016.6 hPa 0.0 l/m 0.6 km/h (0 Bft) SO 0.00 h 0 W/m 7.1 C 7.1 C 1.7 km/h (1 Bft)
04.11.2008 06:00 7.2 C 100 % 1016.3 hPa 0.0 l/m 0.3 km/h (0 Bft) O-SO 0.00 h 0 W/m 7.2 C 7.2 C 0.7 km/h (0 Bft)
04.11.2008 07:00 7.1 C 100 % 1016.1 hPa 0.0 l/m 0.2 km/h (0 Bft) O-SO 0.02 h 12 W/m 7.1 C 7.1 C 0.8 km/h (0 Bft)
04.11.2008 08:00 7.3 C 100 % 1016.3 hPa 0.0 l/m 0.2 km/h (0 Bft) W-SW 0.00 h 36 W/m 7.3 C 7.3 C 1.1 km/h (1 Bft)
04.11.2008 09:00 7.5 C 100 % 1016.2 hPa 0.0 l/m 0.4 km/h (0 Bft) W-NW 0.00 h 86 W/m 7.5 C 7.5 C 1.5 km/h (1 Bft)
04.11.2008 10:00 8.1 C 100 % 1015.8 hPa 0.0 l/m 0.3 km/h (0 Bft) S-SO 0.00 h 139 W/m 8.1 C 8.1 C 1.4 km/h (1 Bft)
04.11.2008 11:00 8.9 C 100 % 1015.3 hPa 0.0 l/m 1.9 km/h (1 Bft) O-SO 0.00 h 174 W/m 8.9 C 8.8 C 3.9 km/h (1 Bft)
04.11.2008 12:00 9.8 C 96 % 1014.8 hPa 0.2 l/m 3.4 km/h (1 Bft) O-SO 0.00 h 177 W/m 9.2 C 9.7 C 6.0 km/h (2 Bft)
04.11.2008 13:00 10.4 C 90 % 1014.0 hPa 0.0 l/m 3.1 km/h (1 Bft) O-SO 0.00 h 158 W/m 8.9 C 10.4 C 6.2 km/h (2 Bft)
04.11.2008 14:00 11.1 C 88 % 1012.7 hPa 0.0 l/m 3.6 km/h (1 Bft) O-SO 0.00 h 125 W/m 9.2 C 11.1 C 6.1 km/h (2 Bft)
04.11.2008 15:00 11.0 C 90 % 1012.3 hPa 0.0 l/m 0.6 km/h (0 Bft) N-NO 0.00 h 60 W/m 9.4 C 11.0 C 1.6 km/h (1 Bft)
04.11.2008 16:00 10.6 C 91 % 1011.3 hPa 0.0 l/m 0.3 km/h (0 Bft) O-SO 0.00 h 13 W/m 9.2 C 10.6 C 1.1 km/h (1 Bft)
04.11.2008 17:00 10.2 C 93 % 1010.5 hPa 0.0 l/m 0.5 km/h (0 Bft) SO 0.00 h 0 W/m 9.1 C 10.2 C 2.1 km/h (1 Bft)
04.11.2008 18:00 10.2 C 91 % 1010.1 hPa 0.0 l/m 0.5 km/h (0 Bft) S-SW 0.00 h 0 W/m 8.8 C 10.2 C 1.9 km/h (1 Bft)
04.11.2008 19:00 10.3 C 87 % 1009.1 hPa 0.0 l/m 4.3 km/h (1 Bft) O-SO 0.00 h 0 W/m 8.2 C 10.3 C 7.8 km/h (2 Bft)
04.11.2008 20:00 10.8 C 82 % 1008.5 hPa 0.0 l/m 2.5 km/h (1 Bft) SO 0.00 h 0 W/m 7.9 C 10.8 C 5.1 km/h (1 Bft)
04.11.2008 21:00 10.7 C 83 % 1008.2 hPa 0.0 l/m 3.2 km/h (1 Bft) SO 0.00 h 0 W/m 7.9 C 10.7 C 5.8 km/h (2 Bft)
04.11.2008 22:00 10.2 C 84 % 1007.1 hPa 0.0 l/m 2.5 km/h (1 Bft) SO 0.00 h 0 W/m 7.6 C 10.2 C 4.7 km/h (1 Bft)
04.11.2008 23:00 9.9 C 86 % 1007.0 hPa 0.0 l/m 2.0 km/h (1 Bft) O-SO 0.00 h 0 W/m 7.7 C 9.8 C 4.3 km/h (1 Bft)
05.11.2008 00:00 9.7 C 87 % 1006.7 hPa 0.0 l/m 1.5 km/h (1 Bft) S-SO 0.00 h 0 W/m 7.6 C 9.6 C 3.0 km/h (1 Bft)
05.11.2008 01:00 9.7 C 87 % 1007.2 hPa 0.0 l/m 2.0 km/h (1 Bft) O-SO 0.00 h 0 W/m 7.6 C 9.6 C 4.6 km/h (1 Bft)
05.11.2008 02:00 9.0 C 88 % 1007.3 hPa 0.0 l/m 0.7 km/h (0 Bft) NO 0.00 h 0 W/m 7.1 C 9.0 C 1.9 km/h (1 Bft)
05.11.2008 03:00 8.3 C 91 % 1007.9 hPa 0.0 l/m 1.6 km/h (1 Bft) O-SO 0.00 h 0 W/m 6.9 C 8.2 C 3.5 km/h (1 Bft)
05.11.2008 04:00 7.7 C 92 % 1008.0 hPa 0.0 l/m 1.4 km/h (1 Bft) O 0.00 h 0 W/m 6.4 C 7.6 C 3.0 km/h (1 Bft)
05.11.2008 05:00 6.8 C 93 % 1008.2 hPa 0.0 l/m 0.7 km/h (0 Bft) O-SO 0.00 h 0 W/m 5.8 C 6.8 C 2.1 km/h (1 Bft)
05.11.2008 06:00 6.4 C 95 % 1008.9 hPa 0.0 l/m 1.6 km/h (1 Bft) NO 0.00 h 0 W/m 5.6 C 6.3 C 3.1 km/h (1 Bft)
05.11.2008 07:00 6.4 C 96 % 1009.7 hPa 0.0 l/m 1.0 km/h (0 Bft) N-NO 0.05 h 11 W/m 5.9 C 6.4 C 2.4 km/h (1 Bft)
05.11.2008 08:00 6.8 C 97 % 1010.2 hPa 0.0 l/m 1.1 km/h (1 Bft) N 0.00 h 31 W/m 6.4 C 6.8 C 2.7 km/h (1 Bft)
05.11.2008 09:00 7.5 C 98 % 1010.6 hPa 0.0 l/m 0.2 km/h (0 Bft) NW 0.00 h 58 W/m 7.2 C 7.5 C 0.8 km/h (0 Bft)
05.11.2008 10:00 8.5 C 97 % 1011.1 hPa 0.0 l/m 0.3 km/h (0 Bft) NW 0.00 h 78 W/m 8.1 C 8.5 C 1.1 km/h (1 Bft)
05.11.2008 11:00 9.3 C 91 % 1011.5 hPa 0.0 l/m 1.9 km/h (1 Bft) NW 0.00 h 107 W/m 7.9 C 9.3 C 4.0 km/h (1 Bft)
05.11.2008 12:00 9.6 C 89 % 1011.5 hPa 0.0 l/m 1.8 km/h (1 Bft) N 0.03 h 105 W/m 8.0 C 9.6 C 3.6 km/h (1 Bft)
05.11.2008 13:00 10.4 C 86 % 1011.7 hPa 0.0 l/m 1.9 km/h (1 Bft) N 0.32 h 178 W/m 8.3 C 10.4 C 4.0 km/h (1 Bft)
05.11.2008 14:00 10.4 C 88 % 1012.2 hPa 0.0 l/m 3.1 km/h (1 Bft) N-NW 0.00 h 101 W/m 8.4 C 10.4 C 6.0 km/h (2 Bft)
05.11.2008 15:00 10.3 C 88 % 1012.7 hPa 0.0 l/m 2.5 km/h (1 Bft) W-NW 0.00 h 67 W/m 8.4 C 10.3 C 4.8 km/h (1 Bft)
05.11.2008 16:00 9.9 C 88 % 1013.3 hPa 0.0 l/m 0.4 km/h (0 Bft) W-NW 0.00 h 13 W/m 8.0 C 9.9 C 1.4 km/h (1 Bft)
05.11.2008 17:00 9.2 C 90 % 1013.7 hPa 0.0 l/m 1.1 km/h (0 Bft) O-NO 0.00 h 0 W/m 7.6 C 9.2 C 2.7 km/h (1 Bft)
05.11.2008 18:00 8.4 C 92 % 1014.2 hPa 0.0 l/m 2.8 km/h (1 Bft) SO 0.00 h 0 W/m 7.1 C 8.2 C 4.2 km/h (1 Bft)
05.11.2008 19:00 7.2 C 93 % 1014.6 hPa 0.0 l/m 0.4 km/h (0 Bft) O-SO 0.00 h 0 W/m 6.2 C 7.2 C 1.1 km/h (0 Bft)
05.11.2008 20:00 6.7 C 95 % 1015.0 hPa 0.0 l/m 0.5 km/h (0 Bft) O 0.00 h 0 W/m 6.0 C 6.7 C 1.2 km/h (1 Bft)
05.11.2008 21:00 6.7 C 97 % 1015.2 hPa 0.0 l/m 0.1 km/h (0 Bft) O 0.00 h 0 W/m 6.2 C 6.7 C 0.5 km/h (0 Bft)
05.11.2008 22:00 6.8 C 98 % 1015.2 hPa 0.0 l/m 0.7 km/h (0 Bft) O 0.00 h 0 W/m 6.5 C 6.8 C 1.6 km/h (1 Bft)
05.11.2008 23:00 6.8 C 99 % 1015.2 hPa 0.0 l/m 0.5 km/h (0 Bft) N 0.00 h 0 W/m 6.6 C 6.8 C 1.8 km/h (1 Bft)
06.11.2008 00:00 6.6 C 99 % 1015.5 hPa 0.0 l/m 1.0 km/h (0 Bft) O-SO 0.00 h 0 W/m 6.4 C 6.6 C 2.1 km/h (1 Bft)
06.11.2008 01:00 6.5 C 99 % 1015.6 hPa 0.0 l/m 0.3 km/h (0 Bft) O-SO 0.00 h 0 W/m 6.3 C 6.4 C 0.6 km/h (0 Bft)
06.11.2008 02:00 6.6 C 100 % 1015.6 hPa 0.0 l/m 0.7 km/h (0 Bft) O-SO 0.00 h 0 W/m 6.6 C 6.6 C 1.4 km/h (1 Bft)
06.11.2008 03:00 6.5 C 100 % 1015.6 hPa 0.0 l/m 0.5 km/h (0 Bft) W 0.00 h 0 W/m 6.5 C 6.5 C 1.2 km/h (1 Bft)
06.11.2008 04:00 6.2 C 99 % 1015.6 hPa 0.0 l/m 0.5 km/h (0 Bft) W 0.00 h 0 W/m 6.1 C 6.2 C 1.4 km/h (1 Bft)
06.11.2008 05:00 6.1 C 100 % 1015.7 hPa 0.0 l/m 0.7 km/h (0 Bft) W-NW 0.00 h 0 W/m 6.1 C 6.1 C 2.0 km/h (1 Bft)
06.11.2008 06:00 6.0 C 100 % 1015.8 hPa 0.0 l/m 0.1 km/h (0 Bft) W-NW 0.00 h 0 W/m 6.0 C 6.0 C 0.5 km/h (0 Bft)
06.11.2008 07:00 5.9 C 100 % 1016.1 hPa 0.0 l/m 0.1 km/h (0 Bft) W-NW 0.00 h 5 W/m 5.9 C 5.9 C 0.8 km/h (0 Bft)
06.11.2008 08:00 6.1 C 100 % 1016.3 hPa 0.0 l/m 0.2 km/h (0 Bft) W-NW 0.00 h 13 W/m 6.1 C 6.1 C 0.9 km/h (0 Bft)
06.11.2008 09:00 6.2 C 100 % 1016.3 hPa 0.0 l/m 0.2 km/h (0 Bft) W-NW 0.00 h 29 W/m 6.2 C 6.2 C 0.7 km/h (0 Bft)
06.11.2008 10:00 6.5 C 100 % 1016.3 hPa 0.0 l/m 0.6 km/h (0 Bft) SO 0.00 h 45 W/m 6.5 C 6.5 C 1.7 km/h (1 Bft)
06.11.2008 11:00 6.7 C 100 % 1016.2 hPa 0.0 l/m 0.5 km/h (0 Bft) O 0.00 h 74 W/m 6.7 C 6.7 C 1.5 km/h (1 Bft)
06.11.2008 12:00 7.6 C 96 % 1015.7 hPa 0.0 l/m 1.7 km/h (1 Bft) O-SO 0.00 h 123 W/m 7.0 C 7.5 C 3.2 km/h (1 Bft)
06.11.2008 13:00 8.2 C 89 % 1015.2 hPa 0.0 l/m 1.6 km/h (1 Bft) O-SO 0.00 h 68 W/m 6.5 C 8.2 C 3.4 km/h (1 Bft)
06.11.2008 14:00 8.2 C 89 % 1015.2 hPa 0.0 l/m 0.7 km/h (0 Bft) O-SO 0.00 h 37 W/m 6.4 C 8.2 C 1.4 km/h (1 Bft)
06.11.2008 15:00 8.6 C 89 % 1015.2 hPa 0.0 l/m 0.0 km/h (0 Bft) O-SO 0.00 h 44 W/m 6.8 C 8.6 C 0.4 km/h (0 Bft)
06.11.2008 16:00 8.4 C 89 % 1015.2 hPa 0.0 l/m 0.6 km/h (0 Bft) O-SO 0.00 h 5 W/m 6.8 C 8.4 C 1.2 km/h (1 Bft)
06.11.2008 17:00 8.0 C 92 % 1015.3 hPa 0.0 l/m 2.3 km/h (1 Bft) O-SO 0.00 h 0 W/m 6.8 C 7.9 C 3.7 km/h (1 Bft)
06.11.2008 18:00 7.8 C 94 % 1015.5 hPa 0.0 l/m 0.8 km/h (0 Bft) O-SO 0.00 h 0 W/m 6.9 C 7.8 C 1.5 km/h (1 Bft)
06.11.2008 19:00 7.7 C 94 % 1015.8 hPa 0.0 l/m 0.2 km/h (0 Bft) O-SO 0.00 h 0 W/m 6.8 C 7.7 C 0.9 km/h (0 Bft)
06.11.2008 20:00 7.7 C 94 % 1015.9 hPa 0.0 l/m 0.0 km/h (0 Bft) N 0.00 h 0 W/m 6.8 C 7.7 C 0.1 km/h (0 Bft)
06.11.2008 21:00 7.7 C 95 % 1016.0 hPa 0.0 l/m 0.0 km/h (0 Bft) N 0.00 h 0 W/m 6.9 C 7.7 C 0.2 km/h (0 Bft)
06.11.2008 22:00 7.6 C 95 % 1015.8 hPa 0.0 l/m 0.2 km/h (0 Bft) O-SO 0.00 h 0 W/m 6.8 C 7.6 C 0.5 km/h (0 Bft)
06.11.2008 23:00 7.5 C 96 % 1015.7 hPa 0.0 l/m 0.4 km/h (0 Bft) O-SO 0.00 h 0 W/m 6.9 C 7.5 C 1.0 km/h (0 Bft)
07.11.2008 00:00 7.6 C 96 % 1015.7 hPa 0.0 l/m 0.0 km/h (0 Bft) O-SO 0.00 h 0 W/m 7.0 C 7.6 C 0.4 km/h (0 Bft)
07.11.2008 01:00 7.6 C 97 % 1015.6 hPa 0.0 l/m 0.0 km/h (0 Bft) N 0.00 h 0 W/m 7.1 C 7.6 C 0.2 km/h (0 Bft)
07.11.2008 02:00 7.6 C 97 % 1015.6 hPa 0.0 l/m 0.6 km/h (0 Bft) O-SO 0.00 h 0 W/m 7.1 C 7.6 C 1.7 km/h (1 Bft)
07.11.2008 03:00 7.6 C 97 % 1015.5 hPa 0.0 l/m 0.0 km/h (0 Bft) N 0.00 h 0 W/m 7.1 C 7.6 C 0.2 km/h (0 Bft)
07.11.2008 04:00 7.4 C 97 % 1015.6 hPa 0.0 l/m 0.0 km/h (0 Bft) N 0.00 h 0 W/m 7.0 C 7.4 C 0.0 km/h (0 Bft)
07.11.2008 05:00 7.4 C 97 % 1015.5 hPa 0.0 l/m 0.0 km/h (0 Bft) N 0.00 h 0 W/m 7.0 C 7.4 C 0.1 km/h (0 Bft)
07.11.2008 06:00 7.4 C 97 % 1015.4 hPa 0.0 l/m 0.1 km/h (0 Bft) O-SO 0.00 h 0 W/m 6.9 C 7.4 C 0.3 km/h (0 Bft)
07.11.2008 07:00 7.3 C 97 % 1015.9 hPa 0.0 l/m 1.7 km/h (1 Bft) O-SO 0.00 h 6 W/m 6.9 C 7.2 C 2.8 km/h (1 Bft)
07.11.2008 08:00 7.5 C 97 % 1016.2 hPa 0.0 l/m 0.0 km/h (0 Bft) N 0.00 h 19 W/m 7.1 C 7.5 C 0.1 km/h (0 Bft)
07.11.2008 09:00 7.9 C 97 % 1016.3 hPa 0.0 l/m 0.1 km/h (0 Bft) O-SO 0.00 h 54 W/m 7.5 C 7.9 C 0.7 km/h (0 Bft)
07.11.2008 10:00 9.1 C 93 % 1016.4 hPa 0.0 l/m 0.3 km/h (0 Bft) W-NW 0.40 h 216 W/m 8.1 C 9.1 C 1.4 km/h (1 Bft)
07.11.2008 11:00 10.9 C 84 % 1016.3 hPa 0.0 l/m 0.8 km/h (0 Bft) W-NW 0.83 h 313 W/m 8.3 C 10.9 C 2.3 km/h (1 Bft)
07.11.2008 12:00 12.2 C 79 % 1015.9 hPa 0.0 l/m 2.0 km/h (1 Bft) W-NW 1.00 h 356 W/m 8.6 C 12.2 C 3.9 km/h (1 Bft)
07.11.2008 13:00 13.3 C 74 % 1015.6 hPa 0.0 l/m 1.9 km/h (1 Bft) N-NW 1.00 h 326 W/m 8.9 C 13.3 C 3.9 km/h (1 Bft)
07.11.2008 14:00 13.6 C 73 % 1015.2 hPa 0.0 l/m 1.0 km/h (0 Bft) NW 1.00 h 245 W/m 8.8 C 13.6 C 2.4 km/h (1 Bft)
07.11.2008 15:00 13.3 C 71 % 1015.3 hPa 0.0 l/m 0.1 km/h (0 Bft) NW 1.00 h 134 W/m 8.1 C 13.3 C 0.6 km/h (0 Bft)
07.11.2008 16:00 12.3 C 73 % 1015.8 hPa 0.0 l/m 1.6 km/h (1 Bft) O-SO 0.15 h 31 W/m 7.6 C 12.3 C 2.2 km/h (1 Bft)
07.11.2008 17:00 9.9 C 82 % 1016.4 hPa 0.0 l/m 1.9 km/h (1 Bft) O-SO 0.00 h 0 W/m 7.1 C 9.9 C 3.2 km/h (1 Bft)
07.11.2008 18:00 8.1 C 89 % 1017.4 hPa 0.0 l/m 0.7 km/h (0 Bft) O-SO 0.00 h 0 W/m 6.4 C 8.1 C 1.1 km/h (1 Bft)
07.11.2008 19:00 6.6 C 93 % 1018.0 hPa 0.0 l/m 1.2 km/h (1 Bft) O-SO 0.00 h 0 W/m 5.6 C 6.6 C 2.1 km/h (1 Bft)
07.11.2008 20:00 5.8 C 95 % 1018.2 hPa 0.0 l/m 1.4 km/h (1 Bft) O-SO 0.00 h 0 W/m 5.1 C 5.8 C 2.5 km/h (1 Bft)
07.11.2008 21:00 5.4 C 96 % 1018.9 hPa 0.0 l/m 3.0 km/h (1 Bft) SO 0.00 h 0 W/m 4.8 C 5.2 C 4.6 km/h (1 Bft)
07.11.2008 22:00 5.0 C 97 % 1019.2 hPa 0.0 l/m 0.6 km/h (0 Bft) SO 0.00 h 0 W/m 4.6 C 5.0 C 1.1 km/h (1 Bft)
07.11.2008 23:00 4.4 C 99 % 1019.5 hPa 0.0 l/m 1.4 km/h (1 Bft) SO 0.00 h 0 W/m 4.2 C 4.3 C 2.3 km/h (1 Bft)
08.11.2008 00:00 4.0 C 100 % 1019.7 hPa 0.2 l/m 0.0 km/h (0 Bft) SO 0.00 h 0 W/m 3.9 C 4.0 C 0.3 km/h (0 Bft)
08.11.2008 01:00 4.3 C 100 % 1020.1 hPa 0.0 l/m 0.6 km/h (0 Bft) SO 0.00 h 0 W/m 4.3 C 4.3 C 1.1 km/h (1 Bft)
08.11.2008 02:00 4.1 C 100 % 1020.6 hPa 0.0 l/m 1.2 km/h (1 Bft) O-SO 0.00 h 0 W/m 4.1 C 4.0 C 2.2 km/h (1 Bft)
08.11.2008 03:00 4.1 C 100 % 1020.6 hPa 0.0 l/m 0.8 km/h (0 Bft) O-SO 0.00 h 0 W/m 4.1 C 4.1 C 2.0 km/h (1 Bft)
08.11.2008 04:00 4.2 C 100 % 1021.0 hPa 0.0 l/m 0.8 km/h (0 Bft) O-SO 0.00 h 0 W/m 4.2 C 4.2 C 1.6 km/h (1 Bft)
08.11.2008 05:00 4.1 C 100 % 1021.5 hPa 0.0 l/m 0.3 km/h (0 Bft) O-SO 0.00 h 0 W/m 4.1 C 4.1 C 1.2 km/h (1 Bft)
08.11.2008 06:00 4.1 C 100 % 1021.8 hPa 0.0 l/m 0.3 km/h (0 Bft) O-SO 0.00 h 0 W/m 4.1 C 4.1 C 1.1 km/h (1 Bft)
08.11.2008 07:00 4.2 C 100 % 1022.4 hPa 0.0 l/m 1.3 km/h (1 Bft) O 0.00 h 5 W/m 4.2 C 4.2 C 2.9 km/h (1 Bft)
08.11.2008 08:00 4.3 C 100 % 1022.8 hPa 0.0 l/m 0.4 km/h (0 Bft) O 0.00 h 14 W/m 4.3 C 4.3 C 1.2 km/h (1 Bft)
08.11.2008 09:00 4.3 C 100 % 1023.2 hPa 0.0 l/m 0.3 km/h (0 Bft) O 0.00 h 50 W/m 4.3 C 4.3 C 1.3 km/h (1 Bft)
08.11.2008 10:00 4.9 C 100 % 1023.3 hPa 0.0 l/m 0.5 km/h (0 Bft) O 0.00 h 116 W/m 4.9 C 4.9 C 1.6 km/h (1 Bft)
08.11.2008 11:00 5.7 C 100 % 1023.4 hPa 0.0 l/m 0.4 km/h (0 Bft) SW 0.00 h 148 W/m 5.7 C 5.7 C 1.3 km/h (1 Bft)
08.11.2008 12:00 6.6 C 100 % 1022.7 hPa 0.0 l/m 0.7 km/h (0 Bft) W-NW 0.02 h 184 W/m 6.6 C 6.6 C 2.1 km/h (1 Bft)
08.11.2008 13:00 7.7 C 100 % 1022.2 hPa 0.0 l/m 0.4 km/h (0 Bft) W-NW 0.63 h 238 W/m 7.7 C 7.7 C 1.6 km/h (1 Bft)
08.11.2008 14:00 10.0 C 93 % 1021.7 hPa 0.0 l/m 0.0 km/h (0 Bft) W-NW 0.88 h 205 W/m 8.8 C 10.0 C 0.3 km/h (0 Bft)
08.11.2008 15:00 10.9 C 86 % 1021.6 hPa 0.0 l/m 0.2 km/h (0 Bft) W-NW 0.38 h 102 W/m 8.7 C 10.9 C 0.9 km/h (0 Bft)
08.11.2008 16:00 10.1 C 90 % 1021.7 hPa 0.0 l/m 0.0 km/h (0 Bft) N 0.35 h 34 W/m 8.5 C 10.1 C 0.0 km/h (0 Bft)
08.11.2008 17:00 8.8 C 93 % 1022.2 hPa 0.0 l/m 0.9 km/h (0 Bft) O-SO 0.00 h 0 W/m 7.6 C 8.8 C 1.8 km/h (1 Bft)
08.11.2008 18:00 7.3 C 95 % 1022.9 hPa 0.0 l/m 1.7 km/h (1 Bft) O-SO 0.00 h 0 W/m 6.6 C 7.3 C 2.6 km/h (1 Bft)
08.11.2008 19:00 6.2 C 97 % 1023.2 hPa 0.0 l/m 1.1 km/h (1 Bft) O-SO 0.00 h 0 W/m 5.8 C 6.2 C 1.9 km/h (1 Bft)
08.11.2008 20:00 5.3 C 98 % 1023.7 hPa 0.0 l/m 1.1 km/h (1 Bft) O-SO 0.00 h 0 W/m 5.0 C 5.3 C 2.0 km/h (1 Bft)
08.11.2008 21:00 4.8 C 99 % 1024.3 hPa 0.0 l/m 0.8 km/h (0 Bft) O-SO 0.00 h 0 W/m 4.6 C 4.8 C 1.1 km/h (1 Bft)
08.11.2008 22:00 5.0 C 99 % 1024.7 hPa 0.0 l/m 0.5 km/h (0 Bft) O-SO 0.00 h 0 W/m 4.9 C 5.0 C 1.2 km/h (1 Bft)
08.11.2008 23:00 5.3 C 100 % 1024.6 hPa 0.0 l/m 0.9 km/h (0 Bft) O-SO 0.00 h 0 W/m 5.2 C 5.3 C 1.7 km/h (1 Bft)
09.11.2008 00:00 5.2 C 100 % 1024.7 hPa 0.0 l/m 0.9 km/h (0 Bft) O-SO 0.00 h 0 W/m 5.2 C 5.2 C 1.8 km/h (1 Bft)
09.11.2008 01:00 5.3 C 100 % 1024.6 hPa 0.2 l/m 1.5 km/h (1 Bft) O-SO 0.00 h 0 W/m 5.3 C 5.3 C 3.0 km/h (1 Bft)
09.11.2008 02:00 5.3 C 100 % 1024.5 hPa 0.0 l/m 0.4 km/h (0 Bft) O-SO 0.00 h 0 W/m 5.3 C 5.3 C 1.8 km/h (1 Bft)
09.11.2008 03:00 5.1 C 100 % 1024.4 hPa 0.0 l/m 1.6 km/h (1 Bft) O-SO 0.00 h 0 W/m 5.1 C 5.0 C 3.4 km/h (1 Bft)
09.11.2008 04:00 5.1 C 100 % 1024.4 hPa 0.0 l/m 0.5 km/h (0 Bft) O-SO 0.00 h 0 W/m 5.1 C 5.1 C 1.7 km/h (1 Bft)
09.11.2008 05:00 5.3 C 100 % 1024.6 hPa 0.0 l/m 0.7 km/h (0 Bft) O-SO 0.00 h 0 W/m 5.3 C 5.3 C 1.9 km/h (1 Bft)
09.11.2008 06:00 5.1 C 100 % 1025.0 hPa 0.0 l/m 4.2 km/h (1 Bft) O-SO 0.00 h 0 W/m 5.1 C 4.5 C 6.2 km/h (2 Bft)
09.11.2008 07:00 5.1 C 100 % 1025.4 hPa 0.0 l/m 1.7 km/h (1 Bft) SO 0.12 h 15 W/m 5.1 C 5.1 C 3.7 km/h (1 Bft)
09.11.2008 08:00 5.7 C 100 % 1025.9 hPa 0.0 l/m 2.1 km/h (1 Bft) SO 0.15 h 67 W/m 5.7 C 5.6 C 4.3 km/h (1 Bft)
09.11.2008 09:00 7.2 C 96 % 1026.1 hPa 0.0 l/m 1.4 km/h (1 Bft) S 0.18 h 113 W/m 6.6 C 7.2 C 3.6 km/h (1 Bft)
09.11.2008 10:00 8.1 C 88 % 1026.2 hPa 0.0 l/m 2.6 km/h (1 Bft) S-SO 0.00 h 86 W/m 6.2 C 7.9 C 6.4 km/h (2 Bft)
09.11.2008 11:00 9.2 C 83 % 1026.2 hPa 0.0 l/m 1.9 km/h (1 Bft) W-SW 0.00 h 121 W/m 6.4 C 9.2 C 4.4 km/h (1 Bft)
09.11.2008 12:00 10.2 C 79 % 1025.6 hPa 0.0 l/m 2.2 km/h (1 Bft) S-SO 0.00 h 110 W/m 6.7 C 10.2 C 5.0 km/h (1 Bft)
09.11.2008 13:00 11.9 C 76 % 1025.2 hPa 0.0 l/m 2.9 km/h (1 Bft) N 0.45 h 206 W/m 7.8 C 11.9 C 5.9 km/h (2 Bft)
09.11.2008 14:00 13.1 C 72 % 1024.9 hPa 0.0 l/m 5.5 km/h (1 Bft) S-SW 0.07 h 140 W/m 8.1 C 13.1 C 11.3 km/h (2 Bft)
09.11.2008 15:00 13.3 C 68 % 1024.8 hPa 0.0 l/m 6.9 km/h (2 Bft) S 0.02 h 92 W/m 7.5 C 13.3 C 13.2 km/h (3 Bft)
09.11.2008 16:00 12.7 C 70 % 1025.1 hPa 0.0 l/m 7.1 km/h (2 Bft) S 0.00 h 28 W/m 7.4 C 12.7 C 14.1 km/h (3 Bft)
09.11.2008 17:00 12.1 C 75 % 1025.6 hPa 0.2 l/m 2.6 km/h (1 Bft) S 0.00 h 0 W/m 7.9 C 12.1 C 6.3 km/h (2 Bft)
09.11.2008 18:00 11.3 C 80 % 1025.9 hPa 0.0 l/m 4.2 km/h (1 Bft) S-SO 0.00 h 0 W/m 8.0 C 11.3 C 6.8 km/h (2 Bft)
09.11.2008 19:00 10.7 C 82 % 1025.9 hPa 0.0 l/m 1.0 km/h (0 Bft) S-SO 0.00 h 0 W/m 7.8 C 10.7 C 1.6 km/h (1 Bft)
09.11.2008 20:00 10.2 C 86 % 1025.9 hPa 0.0 l/m 0.5 km/h (0 Bft) SO 0.00 h 0 W/m 7.9 C 10.2 C 1.2 km/h (1 Bft)
09.11.2008 21:00 9.4 C 89 % 1025.9 hPa 0.0 l/m 1.0 km/h (0 Bft) SO 0.00 h 0 W/m 7.8 C 9.4 C 1.9 km/h (1 Bft)
09.11.2008 22:00 9.5 C 86 % 1025.9 hPa 0.0 l/m 1.9 km/h (1 Bft) O-SO 0.00 h 0 W/m 7.2 C 9.5 C 3.4 km/h (1 Bft)
09.11.2008 23:00 9.1 C 87 % 1025.7 hPa 0.0 l/m 0.5 km/h (0 Bft) NO 0.00 h 0 W/m 7.1 C 9.1 C 1.5 km/h (1 Bft)
Min-Datum _ 07.11.08 09.11.08 05.11.08 - 03.11.08 - - - 07.11.08 08.11.08 03.11.08
_ Min-Zeit 23:58 15:13 00:00 - 00:00 - - - 23:05 02:50 00:02
Minimum _ 3.8 C 66 % 1006.5 hPa - 0.0 km/h (0 Bft) - - - 3.6 C 2.8 C 0.0 km/h (0 Bft)
Max-Datum _ 03.11.08 03.11.08 09.11.08 03.11.08 04.11.08 - 03.11.08 03.11.08 03.11.08 03.11.08 09.11.08
_ Max-Zeit 13:26 07:35 11:15 02:45 14:38 - 07:26 12:47 13:18 13:26 16:26
Maximum _ 14.7 C 100 % 1026.3 hPa 0.2 l/m 17.4 km/h
O-SO (3 Bft)
- 0.02 h 568 W/m 10.3 C 14.7 C 24.3 km/h
S (4 Bft)
Durchschnitt _ 8.0 C 93 % 1016.8 hPa #1.0 l/m 1.2 km/h (1 Bft) O-SO #13:08 h 111 W/m 6.8 C 7.9 C 2.6 km/h (1 Bft)
© Kaiko 2008